KMCF

Macdill AFB Airport

Tampa, Florida, USA
METAR KMCF 150256Z AUTO 11004KT 10SM CLR 26/23 A3007 RMK AO2 DZE00RAB04E22DZB22E23RAB23E41DZB41E42 SLP186 P0000 60000 T02570231 52007 FZRANO $
Observed Flight Rules
Aug-15 @ 02:56 UTC (40 minutes ago) Visual Flight Rules
Wind Visibility Clouds
110° at 4 knots 10 miles
  • Clear skies
Temperatures Readings Precipitation
Current 26°C / 79°F
Dewpoint 23°C / 73°F
Humidity 84%
Altimeter 30.07" Hg
Pressure 1018.6 hPa
Elevation 4
Current Rain 0.005
METAR KMCF 150256Z AUTO 11004KT 10SM CLR 26/23 A3007 RMK AO2 DZE00RAB04E22DZB22E23RAB23E41DZB41E42 SLP186 P0000 60000 T02570231 52007 FZRANO $
Observed Flight Rules
Aug-15 @ 02:56 UTC
(40 minutes ago)
VFR
Wind Visibility
110° at 4 knots 10 miles
Clouds
  • Clear skies
Temperature Dewpoint
26°C / 79°F 23°C / 73°F
Humidity Altimeter Pressure
84% 30.07" Hg 1018.6 hPa
Current Rain
0.005